createdAt,value
2019-03-30T00:01:54.184Z,9.85
2019-03-30T00:04:25.688Z,9.79
2019-03-30T00:06:57.630Z,9.36
2019-03-30T00:09:29.347Z,9.64
2019-03-30T00:12:00.751Z,9.51
2019-03-30T00:14:32.210Z,9.76
2019-03-30T00:17:03.884Z,9.97
2019-03-30T00:19:35.564Z,9.87
2019-03-30T00:22:07.580Z,9.64
2019-03-30T00:24:39.012Z,9.43
2019-03-30T00:27:10.648Z,9.48
2019-03-30T00:29:42.118Z,9.57
2019-03-30T00:32:13.485Z,9.63
2019-03-30T00:34:44.869Z,9.47
2019-03-30T00:37:16.875Z,9.54
2019-03-30T00:39:48.870Z,9.51
2019-03-30T00:42:20.659Z,9.37
2019-03-30T00:44:52.054Z,9.50
2019-03-30T00:47:23.688Z,9.48
2019-03-30T00:49:55.195Z,9.39
2019-03-30T00:52:27.147Z,9.48
2019-03-30T00:54:58.770Z,9.20
2019-03-30T00:57:30.617Z,9.25
2019-03-30T01:00:02.350Z,9.43
2019-03-30T01:02:33.741Z,9.39
2019-03-30T01:05:05.498Z,9.22
2019-03-30T01:07:36.950Z,9.30
2019-03-30T01:10:08.443Z,9.21
2019-03-30T01:12:40.043Z,9.00
2019-03-30T01:15:11.621Z,9.06
2019-03-30T01:17:43.342Z,9.27
2019-03-30T01:20:14.998Z,9.31
2019-03-30T01:22:46.962Z,9.12
2019-03-30T01:25:18.386Z,8.75
2019-03-30T01:27:51.069Z,8.87
2019-03-30T01:30:23.694Z,9.15
2019-03-30T01:32:55.158Z,8.77
2019-03-30T01:35:26.912Z,8.77
2019-03-30T01:37:59.062Z,8.86
2019-03-30T01:40:30.722Z,8.64
2019-03-30T01:43:02.171Z,8.88
2019-03-30T01:45:33.580Z,8.90
2019-03-30T01:48:05.847Z,8.97
2019-03-30T01:50:37.468Z,9.32
2019-03-30T01:53:08.870Z,9.14
2019-03-30T01:55:40.260Z,8.83
2019-03-30T01:58:12.265Z,9.07
2019-03-30T02:00:43.704Z,8.79
2019-03-30T02:03:15.686Z,8.93
2019-03-30T02:05:47.281Z,8.94
2019-03-30T02:08:19.675Z,8.83
2019-03-30T02:10:51.078Z,8.98
2019-03-30T02:13:22.506Z,8.77
2019-03-30T02:15:54.291Z,8.83
2019-03-30T02:18:25.697Z,8.75
2019-03-30T02:20:57.088Z,8.84
2019-03-30T02:23:28.718Z,8.88
2019-03-30T02:26:00.216Z,8.73
2019-03-30T02:28:32.191Z,8.76
2019-03-30T02:31:03.612Z,8.84
2019-03-30T02:33:35.371Z,8.82
2019-03-30T02:36:06.747Z,8.59
2019-03-30T02:38:38.439Z,8.68
2019-03-30T02:41:09.822Z,8.73
2019-03-30T02:43:41.601Z,8.15
2019-03-30T02:46:12.974Z,8.35
2019-03-30T02:48:44.853Z,8.47
2019-03-30T02:51:16.232Z,8.48
2019-03-30T02:53:48.408Z,8.33
2019-03-30T02:56:20.103Z,8.47
2019-03-30T02:58:51.714Z,8.47
2019-03-30T03:01:23.478Z,8.44
2019-03-30T03:03:55.331Z,8.34
2019-03-30T03:06:26.965Z,8.42
2019-03-30T03:08:58.366Z,8.38
2019-03-30T03:11:30.104Z,8.53
2019-03-30T03:14:01.862Z,8.29
2019-03-30T03:16:33.530Z,8.23
2019-03-30T03:19:05.155Z,8.28
2019-03-30T03:21:36.567Z,8.28
2019-03-30T03:24:08.269Z,8.26
2019-03-30T03:26:39.668Z,8.15
2019-03-30T03:29:11.384Z,8.24
2019-03-30T03:31:43.090Z,8.29
2019-03-30T03:34:14.871Z,8.37
2019-03-30T03:36:46.247Z,8.36
2019-03-30T03:39:19.016Z,8.29
2019-03-30T03:41:50.730Z,8.26
2019-03-30T03:44:22.321Z,8.29
2019-03-30T03:46:53.714Z,8.29
2019-03-30T03:49:25.426Z,8.03
2019-03-30T03:51:58.315Z,8.10
2019-03-30T03:54:30.322Z,8.15
2019-03-30T03:57:03.820Z,8.00
2019-03-30T03:59:37.189Z,8.10
2019-03-30T04:02:11.145Z,8.06
2019-03-30T04:04:47.339Z,7.94
2019-03-30T04:07:19.039Z,8.11
2019-03-30T04:09:51.440Z,7.86
2019-03-30T04:12:24.400Z,8.01
2019-03-30T04:14:55.855Z,7.87
2019-03-30T04:17:27.608Z,7.78
2019-03-30T04:19:58.986Z,7.91
2019-03-30T04:22:30.379Z,7.75
2019-03-30T04:25:01.964Z,7.70
2019-03-30T04:27:34.193Z,7.91
2019-03-30T04:30:05.807Z,7.72
2019-03-30T04:32:38.187Z,7.77
2019-03-30T04:35:09.543Z,7.62
2019-03-30T04:37:40.941Z,7.73
2019-03-30T04:40:12.664Z,7.68
2019-03-30T04:42:44.030Z,7.74
2019-03-30T04:45:15.562Z,7.72
2019-03-30T04:47:46.914Z,7.29
2019-03-30T04:50:18.545Z,7.49
2019-03-30T04:52:50.506Z,7.49
2019-03-30T04:55:22.364Z,7.60
2019-03-30T04:57:57.844Z,7.35
2019-03-30T05:00:27.089Z,7.66
2019-03-30T05:02:59.510Z,7.67
2019-03-30T05:05:30.922Z,7.76
2019-03-30T05:08:02.309Z,7.97
2019-03-30T05:10:34.048Z,7.77
2019-03-30T05:13:05.456Z,7.62
2019-03-30T05:15:36.894Z,7.67
2019-03-30T05:18:08.611Z,7.50
2019-03-30T05:20:40.053Z,7.51
2019-03-30T05:23:11.721Z,7.71
2019-03-30T05:25:43.088Z,7.64
2019-03-30T05:28:15.534Z,7.68
2019-03-30T05:30:47.793Z,7.79
2019-03-30T05:33:19.164Z,7.64
2019-03-30T05:35:50.946Z,7.66
2019-03-30T05:38:22.657Z,7.56
2019-03-30T05:40:54.035Z,7.57
2019-03-30T05:43:25.439Z,7.73
2019-03-30T05:45:57.039Z,7.83
2019-03-30T05:48:28.869Z,7.80
2019-03-30T05:51:00.671Z,7.71
2019-03-30T05:53:32.328Z,7.54
2019-03-30T05:56:03.720Z,7.76
2019-03-30T05:58:35.094Z,7.71
2019-03-30T06:01:06.694Z,7.70
2019-03-30T06:03:38.405Z,7.85
2019-03-30T06:06:09.851Z,7.76
2019-03-30T06:08:41.272Z,7.75
2019-03-30T06:11:13.199Z,7.94
2019-03-30T06:13:44.823Z,7.90
2019-03-30T06:16:16.214Z,7.93
2019-03-30T06:18:48.130Z,8.06
2019-03-30T06:21:19.571Z,8.30
2019-03-30T06:23:51.062Z,8.37
2019-03-30T06:26:23.659Z,8.24
2019-03-30T06:28:55.045Z,8.30
2019-03-30T06:31:26.552Z,8.32
2019-03-30T06:33:57.946Z,8.19
2019-03-30T06:36:29.624Z,8.33
2019-03-30T06:39:01.572Z,8.52
2019-03-30T06:41:34.164Z,8.58
2019-03-30T06:44:05.577Z,8.55
2019-03-30T06:46:39.462Z,8.70
2019-03-30T06:49:11.102Z,8.79
2019-03-30T06:51:42.499Z,8.85
2019-03-30T06:54:14.948Z,9.01
2019-03-30T06:56:46.370Z,8.90
2019-03-30T06:59:18.227Z,9.27
2019-03-30T07:01:50.057Z,9.37
2019-03-30T07:04:21.597Z,9.46
2019-03-30T07:06:53.330Z,9.50
2019-03-30T07:09:26.599Z,9.65
2019-03-30T07:11:59.909Z,10.01
2019-03-30T07:14:33.665Z,10.26
2019-03-30T07:17:05.216Z,10.45
2019-03-30T07:19:38.323Z,10.51
2019-03-30T07:22:09.755Z,10.62
2019-03-30T07:24:41.120Z,10.89
2019-03-30T07:27:12.828Z,11.21
2019-03-30T07:29:44.535Z,11.14
2019-03-30T07:32:16.229Z,11.42
2019-03-30T07:34:47.858Z,11.61
2019-03-30T07:37:19.275Z,11.74
2019-03-30T07:39:50.988Z,12.12
2019-03-30T07:42:22.686Z,11.89
2019-03-30T07:44:54.688Z,12.25
2019-03-30T07:47:26.056Z,12.70
2019-03-30T07:49:57.868Z,12.79
2019-03-30T07:52:31.865Z,12.81
2019-03-30T07:55:03.313Z,12.61
2019-03-30T07:57:34.785Z,12.83
2019-03-30T08:00:12.674Z,12.46
2019-03-30T08:02:44.150Z,12.48
2019-03-30T08:05:15.802Z,13.00
2019-03-30T08:07:48.369Z,13.26
2019-03-30T08:10:20.134Z,13.68
2019-03-30T08:12:51.941Z,13.49
2019-03-30T08:15:23.425Z,13.71
2019-03-30T08:17:55.270Z,13.89
2019-03-30T08:20:27.982Z,13.87
2019-03-30T08:22:59.392Z,14.20
2019-03-30T08:25:30.890Z,14.23
2019-03-30T08:28:04.375Z,14.47
2019-03-30T08:30:36.071Z,14.26
2019-03-30T08:33:08.814Z,14.11
2019-03-30T08:35:40.578Z,14.62
2019-03-30T08:38:12.309Z,14.88
2019-03-30T08:40:44.292Z,14.81
2019-03-30T08:43:16.054Z,15.38
2019-03-30T08:45:48.989Z,15.21
2019-03-30T08:48:21.111Z,15.43
2019-03-30T08:50:52.820Z,15.62
2019-03-30T08:53:24.352Z,15.74
2019-03-30T08:55:56.057Z,16.17
2019-03-30T08:58:27.728Z,16.41
2019-03-30T09:01:00.078Z,16.72
2019-03-30T09:03:33.940Z,16.12
2019-03-30T09:06:04.642Z,16.13
2019-03-30T09:08:36.330Z,16.49
2019-03-30T09:11:08.235Z,17.04
2019-03-30T09:13:40.192Z,17.49
2019-03-30T09:16:11.789Z,17.27
2019-03-30T09:18:43.179Z,17.28
2019-03-30T09:21:14.833Z,16.99
2019-03-30T09:23:47.796Z,17.14
2019-03-30T09:26:19.409Z,17.06
2019-03-30T09:28:51.306Z,16.96
2019-03-30T09:31:24.256Z,17.15
2019-03-30T09:33:55.914Z,17.02
2019-03-30T09:36:27.449Z,17.62
2019-03-30T09:38:58.828Z,17.77
2019-03-30T09:41:30.238Z,17.88
2019-03-30T09:44:01.887Z,17.88
2019-03-30T09:46:34.674Z,18.13
2019-03-30T09:49:06.284Z,18.08
2019-03-30T09:51:37.801Z,18.17
2019-03-30T09:54:22.858Z,18.27
2019-03-30T09:56:42.563Z,18.48
2019-03-30T09:59:13.984Z,18.10
2019-03-30T10:01:45.737Z,18.21
2019-03-30T10:04:17.397Z,18.98
2019-03-30T10:06:49.701Z,19.18
2019-03-30T10:09:21.377Z,19.08
2019-03-30T10:11:53.072Z,18.78
2019-03-30T10:14:24.540Z,18.80
2019-03-30T10:16:55.972Z,18.69
2019-03-30T10:19:27.746Z,18.49
2019-03-30T10:21:59.672Z,18.45
2019-03-30T10:24:37.858Z,18.49
2019-03-30T10:27:05.335Z,18.57
2019-03-30T10:29:37.940Z,19.28
2019-03-30T10:32:09.361Z,19.23
2019-03-30T10:34:40.772Z,18.71
2019-03-30T10:37:12.226Z,18.97
2019-03-30T10:39:45.944Z,19.23
2019-03-30T10:42:17.403Z,19.39
2019-03-30T10:44:49.117Z,18.91
2019-03-30T10:47:20.629Z,18.79
2019-03-30T10:49:52.132Z,18.93
2019-03-30T10:52:23.965Z,19.27
2019-03-30T10:54:55.642Z,19.29
2019-03-30T10:57:27.306Z,19.84
2019-03-30T10:59:58.754Z,19.54
2019-03-30T11:02:30.194Z,19.75
2019-03-30T11:05:03.204Z,19.94
2019-03-30T11:07:34.991Z,19.08
2019-03-30T11:10:07.669Z,19.44
2019-03-30T11:12:39.081Z,19.60
2019-03-30T11:15:10.488Z,18.99
2019-03-30T11:17:42.510Z,19.47
2019-03-30T11:20:13.943Z,20.13
2019-03-30T11:22:45.371Z,20.33
2019-03-30T11:25:17.121Z,19.86
2019-03-30T11:27:48.575Z,19.51
2019-03-30T11:30:20.079Z,19.90
2019-03-30T11:32:52.137Z,19.53
2019-03-30T11:35:23.608Z,19.82
2019-03-30T11:37:55.348Z,19.84
2019-03-30T11:40:26.818Z,19.69
2019-03-30T11:42:59.296Z,19.47
2019-03-30T11:45:30.931Z,19.80
2019-03-30T11:48:03.317Z,20.35
2019-03-30T11:50:35.700Z,20.20
2019-03-30T11:53:07.744Z,19.94
2019-03-30T11:55:39.412Z,19.63
2019-03-30T11:58:11.133Z,19.76
2019-03-30T12:00:44.903Z,19.61
2019-03-30T12:03:16.937Z,19.63
2019-03-30T12:05:48.399Z,19.66
2019-03-30T12:08:19.917Z,20.16
2019-03-30T12:10:51.576Z,20.70
2019-03-30T12:13:23.355Z,20.58
2019-03-30T12:15:55.017Z,20.57
2019-03-30T12:18:26.781Z,20.47
2019-03-30T12:20:58.254Z,20.24
2019-03-30T12:23:29.965Z,20.76
2019-03-30T12:26:01.559Z,20.02
2019-03-30T12:28:32.986Z,19.63
2019-03-30T12:31:04.553Z,20.14
2019-03-30T12:33:36.228Z,20.66
2019-03-30T12:36:08.147Z,20.74
2019-03-30T12:38:39.845Z,21.10
2019-03-30T12:41:11.268Z,20.89
2019-03-30T12:43:42.593Z,21.42
2019-03-30T12:46:14.296Z,20.56
2019-03-30T12:48:47.896Z,21.15
2019-03-30T12:51:19.299Z,20.09
2019-03-30T12:53:50.905Z,20.53
2019-03-30T12:56:22.340Z,20.69
2019-03-30T12:58:54.664Z,20.05
2019-03-30T13:01:27.158Z,19.33
2019-03-30T13:03:58.809Z,20.41
2019-03-30T13:06:30.191Z,21.30
2019-03-30T13:09:01.874Z,20.86
2019-03-30T13:11:34.313Z,20.53
2019-03-30T13:14:06.736Z,21.02
2019-03-30T13:16:38.375Z,21.45
2019-03-30T13:19:09.889Z,20.78
2019-03-30T13:21:52.308Z,20.87
2019-03-30T13:24:15.595Z,20.67
2019-03-30T13:26:47.131Z,20.78
2019-03-30T13:29:19.556Z,20.69
2019-03-30T13:31:50.955Z,21.28
2019-03-30T13:34:22.385Z,20.43
2019-03-30T13:36:53.752Z,20.52
2019-03-30T13:39:25.177Z,20.92
2019-03-30T13:41:56.874Z,20.70
2019-03-30T13:44:28.794Z,20.69
2019-03-30T13:47:00.474Z,20.87
2019-03-30T13:49:32.113Z,21.36
2019-03-30T13:52:03.858Z,21.08
2019-03-30T13:54:38.499Z,20.70
2019-03-30T13:57:08.984Z,19.95
2019-03-30T13:59:40.472Z,20.44
2019-03-30T14:02:11.904Z,20.23
2019-03-30T14:04:43.287Z,20.30
2019-03-30T14:07:14.719Z,20.87
2019-03-30T14:09:46.134Z,21.22
2019-03-30T14:12:18.661Z,20.82
2019-03-30T14:14:51.412Z,21.14
2019-03-30T14:17:23.512Z,20.04
2019-03-30T14:19:54.891Z,20.08
2019-03-30T14:22:26.281Z,19.68
2019-03-30T14:24:58.441Z,19.63
2019-03-30T14:27:29.847Z,20.21
2019-03-30T14:30:01.328Z,20.52
2019-03-30T14:32:32.801Z,20.50
2019-03-30T14:35:04.525Z,20.62
2019-03-30T14:37:35.921Z,19.62
2019-03-30T14:40:07.926Z,19.74
2019-03-30T14:42:39.651Z,20.10
2019-03-30T14:45:11.420Z,20.02
2019-03-30T14:47:43.038Z,20.03
2019-03-30T14:50:15.138Z,19.94
2019-03-30T14:52:46.885Z,20.07
2019-03-30T14:55:18.318Z,20.34
2019-03-30T14:57:50.113Z,20.11
2019-03-30T15:00:21.686Z,20.35
2019-03-30T15:02:53.454Z,20.22
2019-03-30T15:05:25.137Z,20.59
2019-03-30T15:07:56.601Z,20.08
2019-03-30T15:10:28.042Z,19.96
2019-03-30T15:12:59.975Z,19.96
2019-03-30T15:15:31.495Z,20.46
2019-03-30T15:18:02.963Z,20.64
2019-03-30T15:20:34.480Z,20.47
2019-03-30T15:23:06.142Z,19.75
2019-03-30T15:25:37.587Z,19.60
2019-03-30T15:28:09.036Z,19.61
2019-03-30T15:30:45.029Z,19.66
2019-03-30T15:33:17.045Z,19.56
2019-03-30T15:35:48.487Z,19.61
2019-03-30T15:38:22.714Z,19.59
2019-03-30T15:40:55.769Z,19.54
2019-03-30T15:43:38.282Z,19.62
2019-03-30T15:46:00.700Z,19.68
2019-03-30T15:48:32.411Z,19.56
2019-03-30T15:51:04.866Z,19.38
2019-03-30T15:53:36.289Z,19.37
2019-03-30T15:56:07.846Z,19.60
2019-03-30T15:58:43.351Z,19.53
2019-03-30T16:01:15.707Z,19.44
2019-03-30T16:03:47.062Z,19.36
2019-03-30T16:06:18.570Z,19.40
2019-03-30T16:08:50.093Z,19.44
2019-03-30T16:11:21.579Z,19.25
2019-03-30T16:13:53.207Z,19.25
2019-03-30T16:16:25.057Z,19.28
2019-03-30T16:18:56.494Z,19.32
2019-03-30T16:21:27.896Z,19.66
2019-03-30T16:23:59.340Z,19.30
2019-03-30T16:26:41.790Z,19.14
2019-03-30T16:29:04.574Z,18.97
2019-03-30T16:31:36.001Z,18.97
2019-03-30T16:34:07.387Z,18.88
2019-03-30T16:36:38.991Z,18.79
2019-03-30T16:39:11.146Z,18.82
2019-03-30T16:41:42.627Z,18.84
2019-03-30T16:44:15.222Z,18.74
2019-03-30T16:46:46.945Z,18.75
2019-03-30T16:49:19.529Z,18.65
2019-03-30T16:51:51.360Z,18.67
2019-03-30T16:54:28.805Z,18.76
2019-03-30T16:57:01.481Z,18.52
2019-03-30T16:59:33.090Z,18.76
2019-03-30T17:02:04.796Z,18.76
2019-03-30T17:04:36.504Z,18.74
2019-03-30T17:07:07.899Z,18.80
2019-03-30T17:09:39.285Z,18.89
2019-03-30T17:12:11.140Z,18.79
2019-03-30T17:14:42.522Z,18.66
2019-03-30T17:17:14.006Z,18.47
2019-03-30T17:19:45.768Z,18.41
2019-03-30T17:22:17.366Z,18.34
2019-03-30T17:24:49.089Z,18.40
2019-03-30T17:27:20.836Z,18.30
2019-03-30T17:29:52.524Z,18.21
2019-03-30T17:32:23.886Z,17.96
2019-03-30T17:34:55.661Z,17.97
2019-03-30T17:37:27.402Z,17.90
2019-03-30T17:39:58.860Z,17.94
2019-03-30T17:42:31.581Z,17.79
2019-03-30T17:45:03.173Z,17.80
2019-03-30T17:47:35.283Z,17.63
2019-03-30T17:50:09.155Z,17.52
2019-03-30T17:52:45.583Z,17.55
2019-03-30T17:55:17.049Z,17.38
2019-03-30T17:57:48.484Z,17.26
2019-03-30T18:00:20.749Z,17.21
2019-03-30T18:02:52.890Z,17.17
2019-03-30T18:05:24.539Z,17.07
2019-03-30T18:07:55.959Z,17.06
2019-03-30T18:10:27.453Z,17.01
2019-03-30T18:12:58.982Z,16.96
2019-03-30T18:15:34.931Z,16.90
2019-03-30T18:18:06.972Z,16.86
2019-03-30T18:20:38.985Z,16.84
2019-03-30T18:23:10.391Z,16.78
2019-03-30T18:25:41.801Z,16.77
2019-03-30T18:28:26.423Z,16.72
2019-03-30T18:30:46.573Z,16.68
2019-03-30T18:33:18.076Z,16.68
2019-03-30T18:35:49.987Z,16.60
2019-03-30T18:38:21.859Z,16.52
2019-03-30T18:40:53.267Z,16.53
2019-03-30T18:43:24.734Z,16.47
2019-03-30T18:45:56.801Z,16.55
2019-03-30T18:48:28.249Z,16.33
2019-03-30T18:51:00.081Z,16.24
2019-03-30T18:53:31.685Z,16.21
2019-03-30T18:56:03.081Z,16.30
2019-03-30T18:58:41.659Z,16.12
2019-03-30T19:01:08.904Z,16.16
2019-03-30T19:03:40.378Z,16.08
2019-03-30T19:06:12.443Z,16.08
2019-03-30T19:08:43.907Z,16.16
2019-03-30T19:11:15.299Z,16.06
2019-03-30T19:13:46.744Z,16.06
2019-03-30T19:16:18.478Z,16.20
2019-03-30T19:18:50.896Z,16.00
2019-03-30T19:21:22.385Z,15.94
2019-03-30T19:23:53.800Z,15.88
2019-03-30T19:26:25.513Z,15.83
2019-03-30T19:28:57.098Z,15.82
2019-03-30T19:31:28.828Z,15.70
2019-03-30T19:34:00.724Z,15.69
2019-03-30T19:36:32.277Z,15.69
2019-03-30T19:39:04.737Z,15.71
2019-03-30T19:41:36.205Z,15.74
2019-03-30T19:44:07.697Z,15.57
2019-03-30T19:46:39.113Z,15.51
2019-03-30T19:49:10.744Z,15.59
2019-03-30T19:51:42.150Z,15.58
2019-03-30T19:54:14.022Z,15.48
2019-03-30T19:56:46.935Z,15.36
2019-03-30T19:59:18.304Z,15.33
2019-03-30T20:01:50.428Z,15.36
2019-03-30T20:04:22.122Z,15.44
2019-03-30T20:06:53.697Z,15.61
2019-03-30T20:09:25.130Z,15.50
2019-03-30T20:11:56.520Z,15.52
2019-03-30T20:14:28.123Z,15.35
2019-03-30T20:16:59.686Z,15.40
2019-03-30T20:19:31.294Z,15.30
2019-03-30T20:22:02.908Z,15.09
2019-03-30T20:24:34.623Z,15.09
2019-03-30T20:27:06.124Z,15.12
2019-03-30T20:29:37.981Z,15.19
2019-03-30T20:32:09.842Z,15.02
2019-03-30T20:34:41.576Z,14.99
2019-03-30T20:37:15.707Z,14.73
2019-03-30T20:39:47.260Z,15.00
2019-03-30T20:42:18.787Z,14.93
2019-03-30T20:44:50.468Z,14.84
2019-03-30T20:47:22.028Z,14.91
2019-03-30T20:49:53.471Z,14.67
2019-03-30T20:52:25.386Z,14.61
2019-03-30T20:54:56.825Z,14.62
2019-03-30T20:57:28.636Z,14.64
2019-03-30T21:00:00.353Z,14.39
2019-03-30T21:02:32.290Z,14.38
2019-03-30T21:05:04.379Z,14.37
2019-03-30T21:07:36.015Z,14.37
2019-03-30T21:10:08.517Z,14.21
2019-03-30T21:12:39.941Z,14.25
2019-03-30T21:15:12.454Z,14.25
2019-03-30T21:17:43.899Z,14.20
2019-03-30T21:20:15.837Z,14.28
2019-03-30T21:22:47.231Z,14.19
2019-03-30T21:25:18.710Z,13.98
2019-03-30T21:27:50.344Z,13.88
2019-03-30T21:30:22.075Z,13.62
2019-03-30T21:32:54.344Z,13.56
2019-03-30T21:35:26.916Z,13.66
2019-03-30T21:37:58.861Z,13.59
2019-03-30T21:40:31.312Z,13.47
2019-03-30T21:43:03.135Z,13.38
2019-03-30T21:45:35.041Z,13.31
2019-03-30T21:48:07.618Z,13.33
2019-03-30T21:50:39.032Z,13.33
2019-03-30T21:53:10.748Z,13.24
2019-03-30T21:55:42.722Z,13.18
2019-03-30T21:58:14.173Z,13.15
2019-03-30T22:00:45.529Z,12.99
2019-03-30T22:03:17.497Z,13.01
2019-03-30T22:05:49.250Z,12.89
2019-03-30T22:08:20.980Z,12.79
2019-03-30T22:10:52.639Z,12.86
2019-03-30T22:13:25.183Z,12.80
2019-03-30T22:15:56.953Z,12.89
2019-03-30T22:18:28.712Z,13.01
2019-03-30T22:21:00.102Z,12.87
2019-03-30T22:23:31.795Z,12.80
2019-03-30T22:26:03.517Z,12.93
2019-03-30T22:28:35.125Z,13.04
2019-03-30T22:31:06.525Z,12.80
2019-03-30T22:33:37.953Z,12.96
2019-03-30T22:36:09.522Z,12.74
2019-03-30T22:38:41.187Z,12.74
2019-03-30T22:41:12.629Z,12.75
2019-03-30T22:43:44.038Z,12.91
2019-03-30T22:46:15.548Z,12.73
2019-03-30T22:48:47.484Z,12.65
2019-03-30T22:51:19.044Z,12.55
2019-03-30T22:53:50.933Z,12.70
2019-03-30T22:56:22.361Z,12.56
2019-03-30T22:58:54.001Z,12.37
2019-03-30T23:01:25.963Z,12.30
2019-03-30T23:03:57.453Z,12.04
2019-03-30T23:06:29.171Z,12.10
2019-03-30T23:09:00.690Z,11.93
2019-03-30T23:11:32.936Z,11.94
2019-03-30T23:14:04.277Z,11.91
2019-03-30T23:16:35.830Z,11.81
2019-03-30T23:19:07.367Z,11.89
2019-03-30T23:21:38.822Z,11.83
2019-03-30T23:24:10.278Z,11.95
2019-03-30T23:26:41.783Z,12.02
2019-03-30T23:29:13.475Z,11.86
2019-03-30T23:31:44.908Z,11.69
2019-03-30T23:34:18.202Z,11.84
2019-03-30T23:36:49.900Z,11.57
2019-03-30T23:39:21.968Z,11.80
2019-03-30T23:41:53.342Z,11.74
2019-03-30T23:44:24.861Z,11.53
2019-03-30T23:46:56.714Z,11.49
2019-03-30T23:49:28.451Z,11.54
2019-03-30T23:51:59.865Z,11.52
2019-03-30T23:54:31.729Z,11.51
2019-03-30T23:57:03.731Z,11.52
2019-03-30T23:59:35.402Z,11.41
